Time;durP1;ratioP1;P1;durP2;ratioP2;P2;SDS_P1;SDS_P2;PMS_P1;PMS_P2;Temp;Humidity;BMP_temperature;BMP_pressure;BME280_temperature;BME280_humidity;BME280_pressure;Samples;Min_cycle;Max_cycle;Signal;HPM_P1;HPM_P2
2022/12/23 00:00:20;;;;;;;;;;;10.40;99.90;;;;;;5096282;28;19927;-73
2022/12/23 00:02:47;;;;;;;;;;;10.40;99.90;;;;;;5096207;28;19936;-74
2022/12/23 00:05:13;;;;;;;;;;;10.40;99.90;;;;;;5095247;28;19927;-74
2022/12/23 00:07:40;;;;;;;;;;;10.40;99.90;;;;;;5094139;28;19924;-74
2022/12/23 00:10:07;;;;;;;;;;;10.50;99.90;;;;;;5091743;28;20024;-73
2022/12/23 00:15:20;;;;;;;;;;;10.50;99.90;;;;;;5091357;28;19942;-73
2022/12/23 00:17:46;;;;;;;;;;;10.50;99.90;;;;;;5092600;28;20034;-73
2022/12/23 00:20:14;;;;;;;;;;;10.50;99.90;;;;;;5093861;28;19946;-73
2022/12/23 00:25:38;;;;;;;;;;;10.50;99.90;;;;;;5076698;28;19938;-73
2022/12/23 00:28:06;;;;;;;;;;;10.50;99.90;;;;;;5091200;28;20290;-73
2022/12/23 00:30:34;;;;;;;;;;;10.50;99.90;;;;;;5091203;28;20005;-74
2022/12/23 00:33:01;;;;;;;;;;;10.50;99.90;;;;;;5089165;28;19967;-73
2022/12/23 00:35:29;;;;;;;;;;;10.50;99.90;;;;;;5093290;28;20024;-73
2022/12/23 00:37:56;;;;;;;;;;;10.50;99.90;;;;;;5090084;28;19924;-73
2022/12/23 00:43:07;;;;;;;;;;;10.40;99.90;;;;;;5089641;28;19938;-73
2022/12/23 00:45:35;;;;;;;;;;;10.40;99.90;;;;;;5090662;28;20015;-72
2022/12/23 00:50:46;;;;;;;;;;;10.40;99.90;;;;;;5091180;28;19943;-74
2022/12/23 00:53:13;;;;;;;;;;;10.40;99.90;;;;;;5093136;28;20026;-73
2022/12/23 00:55:39;;;;;;;;;;;10.40;99.90;;;;;;5091492;28;20058;-73
2022/12/23 00:58:06;;;;;;;;;;;10.40;99.90;;;;;;5090529;28;20028;-74
2022/12/23 01:06:03;;;;;;;;;;;10.40;99.90;;;;;;5095312;28;19931;-73
2022/12/23 01:08:30;;;;;;;;;;;10.50;99.90;;;;;;5096047;28;19928;-72
2022/12/23 01:10:56;;;;;;;;;;;10.50;99.90;;;;;;5094708;28;19927;-73
2022/12/23 01:13:23;;;;;;;;;;;10.50;99.90;;;;;;5095617;28;20420;-72
2022/12/23 01:15:51;;;;;;;;;;;10.50;99.90;;;;;;5096775;28;19925;-72
2022/12/23 01:18:18;;;;;;;;;;;10.50;99.90;;;;;;5095705;28;20014;-73
2022/12/23 01:20:44;;;;;;;;;;;10.50;99.90;;;;;;5092584;28;20033;-73
2022/12/23 01:23:11;;;;;;;;;;;10.60;99.90;;;;;;5094057;28;19942;-73
2022/12/23 01:25:38;;;;;;;;;;;10.50;99.90;;;;;;5093713;28;20015;-71
2022/12/23 01:28:04;;;;;;;;;;;10.50;99.90;;;;;;5094182;28;19927;-72
2022/12/23 01:30:31;;;;;;;;;;;10.50;99.90;;;;;;5097952;28;19932;-72
2022/12/23 01:32:59;;;;;;;;;;;10.50;99.90;;;;;;5093071;28;19938;-73
2022/12/23 01:35:26;;;;;;;;;;;10.50;99.90;;;;;;5093409;28;19932;-73
2022/12/23 01:37:53;;;;;;;;;;;10.50;99.90;;;;;;5093372;28;22068;-71
2022/12/23 01:40:19;;;;;;;;;;;10.50;99.90;;;;;;5091204;28;19938;-72
2022/12/23 01:42:45;;;;;;;;;;;10.50;99.90;;;;;;5093930;28;19932;-73
2022/12/23 01:45:15;;;;;;;;;;;10.50;99.90;;;;;;5092551;28;19943;-73
2022/12/23 01:47:43;;;;;;;;;;;10.50;99.90;;;;;;5096429;28;19974;-73
2022/12/23 01:50:14;;;;;;;;;;;10.50;99.90;;;;;;5094807;28;20378;-73
2022/12/23 01:52:43;;;;;;;;;;;10.50;99.90;;;;;;5093623;28;19932;-73
2022/12/23 01:55:10;;;;;;;;;;;10.50;99.90;;;;;;5090903;28;19932;-73
2022/12/23 01:57:40;;;;;;;;;;;10.50;99.90;;;;;;5094191;28;19941;-73
2022/12/23 02:05:38;;;;;;;;;;;10.50;99.90;;;;;;5094985;28;19946;-72
2022/12/23 02:10:57;;;;;;;;;;;10.50;99.90;;;;;;5094038;28;19935;-73
2022/12/23 02:13:28;;;;;;;;;;;10.50;99.90;;;;;;5090799;28;19934;-73
2022/12/23 02:16:16;;;;;;;;;;;10.50;99.90;;;;;;5094311;28;19930;-72
2022/12/23 02:18:54;;;;;;;;;;;10.40;99.90;;;;;;5093523;28;19932;-72
2022/12/23 02:21:26;;;;;;;;;;;10.30;99.90;;;;;;5093376;28;20010;-72
2022/12/23 02:24:23;;;;;;;;;;;10.30;99.90;;;;;;5093749;28;19934;-73
2022/12/23 02:27:09;;;;;;;;;;;10.20;99.90;;;;;;5030436;28;19933;-72
2022/12/23 02:29:41;;;;;;;;;;;10.20;99.90;;;;;;5087456;28;19932;-73
2022/12/23 02:32:13;;;;;;;;;;;10.20;99.90;;;;;;5092195;28;19958;-73
2022/12/23 02:34:40;;;;;;;;;;;10.20;99.90;;;;;;5093942;28;19928;-73
2022/12/23 02:37:11;;;;;;;;;;;10.10;99.90;;;;;;5095041;28;20436;-72
2022/12/23 02:39:41;;;;;;;;;;;10.10;99.90;;;;;;5095086;28;19930;-72
2022/12/23 02:42:11;;;;;;;;;;;10.10;99.90;;;;;;5100364;28;19938;-72
2022/12/23 02:44:41;;;;;;;;;;;10.00;99.90;;;;;;5094587;28;19927;-71
2022/12/23 02:47:10;;;;;;;;;;;10.10;99.90;;;;;;5093573;28;19931;-74
2022/12/23 02:49:39;;;;;;;;;;;10.10;99.90;;;;;;5091908;28;19938;-72
2022/12/23 02:52:07;;;;;;;;;;;10.10;99.90;;;;;;5092168;28;19934;-72
2022/12/23 02:54:36;;;;;;;;;;;10.10;99.90;;;;;;5092006;28;19985;-72
2022/12/23 02:57:05;;;;;;;;;;;10.10;99.90;;;;;;5092753;28;19930;-72
2022/12/23 02:59:34;;;;;;;;;;;10.10;99.90;;;;;;5092689;28;19934;-72
2022/12/23 03:02:00;;;;;;;;;;;10.20;99.90;;;;;;5094172;28;19934;-71
2022/12/23 03:04:27;;;;;;;;;;;10.20;99.90;;;;;;5089788;28;20382;-72
2022/12/23 03:06:57;;;;;;;;;;;10.20;99.90;;;;;;5092917;28;20010;-72
2022/12/23 03:09:28;;;;;;;;;;;10.20;99.90;;;;;;5091921;28;19931;-72
2022/12/23 03:11:59;;;;;;;;;;;10.20;99.90;;;;;;5086381;28;20421;-72
2022/12/23 03:14:34;;;;;;;;;;;10.20;99.90;;;;;;5090931;28;19924;-72
2022/12/23 03:17:07;;;;;;;;;;;10.20;99.90;;;;;;5092569;28;23337;-77
2022/12/23 03:19:39;;;;;;;;;;;10.30;99.90;;;;;;5092903;28;19943;-72
2022/12/23 03:22:10;;;;;;;;;;;10.30;99.90;;;;;;5092414;28;19954;-72
2022/12/23 03:24:39;;;;;;;;;;;10.30;99.90;;;;;;5091720;28;19932;-72
2022/12/23 03:27:08;;;;;;;;;;;10.30;99.90;;;;;;5090430;28;19935;-73
2022/12/23 03:29:38;;;;;;;;;;;10.30;99.90;;;;;;5095377;28;19951;-72
2022/12/23 03:32:05;;;;;;;;;;;10.20;99.90;;;;;;5093420;28;20424;-72
2022/12/23 03:34:36;;;;;;;;;;;10.30;99.90;;;;;;5090467;28;19932;-71
2022/12/23 03:37:04;;;;;;;;;;;10.20;99.90;;;;;;5091911;28;20026;-73
2022/12/23 03:39:34;;;;;;;;;;;10.20;99.90;;;;;;5091801;28;20006;-72
2022/12/23 03:42:03;;;;;;;;;;;10.20;99.90;;;;;;5090228;28;20019;-73
2022/12/23 03:44:31;;;;;;;;;;;10.20;99.90;;;;;;5089532;28;20397;-74
2022/12/23 03:47:02;;;;;;;;;;;10.20;99.90;;;;;;5093804;28;19932;-74
2022/12/23 03:49:31;;;;;;;;;;;10.20;99.90;;;;;;5093911;28;19927;-73
2022/12/23 03:52:00;;;;;;;;;;;10.20;99.90;;;;;;5090867;28;19934;-73
2022/12/23 03:54:30;;;;;;;;;;;10.20;99.90;;;;;;5089503;28;20606;-73
2022/12/23 03:57:02;;;;;;;;;;;10.20;99.90;;;;;;5089424;28;19988;-73
2022/12/23 03:59:31;;;;;;;;;;;10.20;99.90;;;;;;5090469;28;20015;-74
2022/12/23 04:02:00;;;;;;;;;;;10.10;99.90;;;;;;5091136;28;20054;-73
2022/12/23 04:04:30;;;;;;;;;;;10.10;99.90;;;;;;5089622;28;19932;-73
2022/12/23 04:06:58;;;;;;;;;;;10.20;99.90;;;;;;5091360;28;19932;-72
2022/12/23 04:09:26;;;;;;;;;;;10.20;99.90;;;;;;5094246;28;19924;-72
2022/12/23 04:11:53;;;;;;;;;;;10.10;99.90;;;;;;5090546;28;19949;-73
2022/12/23 04:14:22;;;;;;;;;;;10.20;99.90;;;;;;5092708;28;19927;-72
2022/12/23 04:16:50;;;;;;;;;;;10.10;99.90;;;;;;5089880;28;20395;-72
2022/12/23 04:19:17;;;;;;;;;;;10.10;99.90;;;;;;5092455;28;20007;-72
2022/12/23 04:21:43;;;;;;;;;;;10.10;99.90;;;;;;5090238;28;20404;-72
2022/12/23 04:24:10;;;;;;;;;;;10.20;99.90;;;;;;5092544;28;19923;-72
2022/12/23 04:26:38;;;;;;;;;;;10.10;99.90;;;;;;5092224;28;19924;-72
2022/12/23 04:29:04;;;;;;;;;;;10.10;99.90;;;;;;5093561;28;19970;-73
2022/12/23 04:31:32;;;;;;;;;;;10.10;99.90;;;;;;5094067;28;20331;-73
2022/12/23 04:33:59;;;;;;;;;;;10.10;99.90;;;;;;5092040;28;19927;-73
2022/12/23 04:36:26;;;;;;;;;;;10.10;99.90;;;;;;5091064;28;20044;-73
2022/12/23 04:38:52;;;;;;;;;;;10.10;99.90;;;;;;5095269;28;19932;-73
2022/12/23 04:41:19;;;;;;;;;;;10.10;99.90;;;;;;5094528;28;19958;-73
2022/12/23 04:43:46;;;;;;;;;;;10.10;99.90;;;;;;5095087;28;20601;-73
2022/12/23 04:46:12;;;;;;;;;;;10.10;99.90;;;;;;5097124;28;20022;-74
2022/12/23 04:48:40;;;;;;;;;;;10.10;99.90;;;;;;5095628;28;20270;-73
2022/12/23 04:51:07;;;;;;;;;;;10.10;99.90;;;;;;5097553;27;19931;-73
2022/12/23 04:53:35;;;;;;;;;;;10.10;99.90;;;;;;5096394;28;19967;-73
2022/12/23 04:56:03;;;;;;;;;;;10.00;99.90;;;;;;5096049;28;20297;-74
2022/12/23 04:58:29;;;;;;;;;;;10.00;99.90;;;;;;5095216;28;19934;-73
2022/12/23 05:01:06;;;;;;;;;;;10.00;99.90;;;;;;5096300;28;20015;-72
2022/12/23 05:03:33;;;;;;;;;;;10.10;99.90;;;;;;5095441;28;19938;-73
2022/12/23 05:06:01;;;;;;;;;;;10.00;99.90;;;;;;5095085;28;19939;-73
2022/12/23 05:08:28;;;;;;;;;;;10.00;99.90;;;;;;5095848;28;20305;-73
2022/12/23 05:10:55;;;;;;;;;;;10.00;99.90;;;;;;5097552;28;19928;-74
2022/12/23 05:13:21;;;;;;;;;;;10.00;99.90;;;;;;5093040;28;19939;-73
2022/12/23 05:15:49;;;;;;;;;;;10.00;99.90;;;;;;5094801;28;20313;-73
2022/12/23 05:18:16;;;;;;;;;;;10.00;99.90;;;;;;5096347;28;19934;-73
2022/12/23 05:20:43;;;;;;;;;;;10.00;99.90;;;;;;5093649;28;19934;-74
2022/12/23 05:23:11;;;;;;;;;;;10.00;99.90;;;;;;5094335;28;19932;-73
2022/12/23 05:25:38;;;;;;;;;;;10.00;99.90;;;;;;5093142;28;19928;-73
2022/12/23 05:28:06;;;;;;;;;;;10.00;99.90;;;;;;5094812;28;20465;-73
2022/12/23 05:30:33;;;;;;;;;;;10.00;99.90;;;;;;5094873;28;19931;-73
2022/12/23 05:33:00;;;;;;;;;;;10.00;99.90;;;;;;5095059;28;19928;-72
2022/12/23 05:35:27;;;;;;;;;;;10.00;99.90;;;;;;5095568;28;19931;-72
2022/12/23 05:37:54;;;;;;;;;;;10.00;99.90;;;;;;5097786;28;19932;-74
2022/12/23 05:40:22;;;;;;;;;;;10.00;99.90;;;;;;5094273;28;19934;-73
2022/12/23 05:42:48;;;;;;;;;;;9.90;99.90;;;;;;5093461;28;20664;-73
2022/12/23 05:45:15;;;;;;;;;;;10.00;99.90;;;;;;5093712;28;20677;-73
2022/12/23 05:47:42;;;;;;;;;;;9.90;99.90;;;;;;5098249;28;20021;-73
2022/12/23 05:50:09;;;;;;;;;;;9.90;99.90;;;;;;5094766;28;20350;-73
2022/12/23 05:52:36;;;;;;;;;;;9.90;99.90;;;;;;5094434;28;20343;-73
2022/12/23 05:55:02;;;;;;;;;;;9.90;99.90;;;;;;5092068;28;19943;-72
2022/12/23 05:57:31;;;;;;;;;;;9.90;99.90;;;;;;5096733;28;19938;-73
2022/12/23 05:59:58;;;;;;;;;;;9.90;99.90;;;;;;5093277;28;19934;-73
2022/12/23 06:02:24;;;;;;;;;;;9.90;99.90;;;;;;5095704;28;19927;-73
2022/12/23 06:04:51;;;;;;;;;;;9.90;99.90;;;;;;5092875;28;20893;-73
2022/12/23 06:07:17;;;;;;;;;;;9.90;99.90;;;;;;5089872;28;20777;-74
2022/12/23 06:09:44;;;;;;;;;;;9.90;99.90;;;;;;5090368;28;20307;-73
2022/12/23 06:12:11;;;;;;;;;;;9.90;99.90;;;;;;5091434;28;19927;-73
2022/12/23 06:14:39;;;;;;;;;;;9.90;99.90;;;;;;5087597;28;19928;-73
2022/12/23 06:17:05;;;;;;;;;;;10.00;99.90;;;;;;5091227;28;20343;-73
2022/12/23 06:19:32;;;;;;;;;;;9.90;99.90;;;;;;5094287;28;19932;-74
2022/12/23 06:21:59;;;;;;;;;;;9.90;99.90;;;;;;5106014;28;20051;-74
2022/12/23 06:24:26;;;;;;;;;;;9.90;99.90;;;;;;5106287;28;19924;-73
2022/12/23 06:26:52;;;;;;;;;;;10.00;99.90;;;;;;5108516;28;20007;-73
2022/12/23 06:29:20;;;;;;;;;;;9.90;99.90;;;;;;5102628;27;19928;-73
2022/12/23 06:31:48;;;;;;;;;;;9.90;99.90;;;;;;5095419;28;19924;-74
2022/12/23 06:34:15;;;;;;;;;;;9.90;99.90;;;;;;5100360;28;19967;-73
2022/12/23 06:36:42;;;;;;;;;;;9.90;99.90;;;;;;5094113;28;19962;-71
2022/12/23 06:39:09;;;;;;;;;;;9.90;99.90;;;;;;5089881;28;19934;-74
2022/12/23 06:41:36;;;;;;;;;;;9.80;99.90;;;;;;5088521;28;20481;-73
2022/12/23 06:44:03;;;;;;;;;;;9.70;99.90;;;;;;5089181;28;19932;-74
2022/12/23 06:46:30;;;;;;;;;;;9.70;99.90;;;;;;5091154;28;19927;-73
2022/12/23 06:48:58;;;;;;;;;;;9.70;99.90;;;;;;5092624;28;19940;-75
2022/12/23 06:51:24;;;;;;;;;;;9.70;99.90;;;;;;5089901;28;19928;-74
2022/12/23 06:53:51;;;;;;;;;;;9.70;99.90;;;;;;5091562;28;19924;-74
2022/12/23 06:56:18;;;;;;;;;;;9.60;99.90;;;;;;5091533;28;20056;-74
2022/12/23 06:58:45;;;;;;;;;;;9.60;99.90;;;;;;5090432;28;19943;-73
2022/12/23 07:01:11;;;;;;;;;;;9.60;99.90;;;;;;5088481;28;21108;-73
2022/12/23 07:03:39;;;;;;;;;;;9.60;99.90;;;;;;5091069;28;20019;-73
2022/12/23 07:06:07;;;;;;;;;;;9.60;99.90;;;;;;5093961;28;19931;-76
2022/12/23 07:08:34;;;;;;;;;;;9.60;99.90;;;;;;5091617;28;19927;-74
2022/12/23 07:11:02;;;;;;;;;;;9.60;99.90;;;;;;5092810;28;19924;-74
2022/12/23 07:13:29;;;;;;;;;;;9.60;99.90;;;;;;5089484;28;19939;-72
2022/12/23 07:15:55;;;;;;;;;;;9.70;99.90;;;;;;5090117;28;20043;-74
2022/12/23 07:18:22;;;;;;;;;;;9.70;99.90;;;;;;5089383;28;19994;-72
2022/12/23 07:20:49;;;;;;;;;;;9.70;99.90;;;;;;5089885;28;19938;-74
2022/12/23 07:23:17;;;;;;;;;;;9.70;99.90;;;;;;5088680;27;19927;-73
2022/12/23 07:25:44;;;;;;;;;;;9.60;99.90;;;;;;5092327;28;19924;-73
2022/12/23 07:28:11;;;;;;;;;;;9.60;99.90;;;;;;5090011;28;19934;-74
2022/12/23 07:30:37;;;;;;;;;;;9.60;99.90;;;;;;5088760;28;20007;-74
2022/12/23 07:33:04;;;;;;;;;;;9.60;99.90;;;;;;5088906;28;20027;-74
2022/12/23 07:35:31;;;;;;;;;;;9.60;99.90;;;;;;5090070;28;19931;-73
2022/12/23 07:37:57;;;;;;;;;;;9.60;99.90;;;;;;5089528;27;19968;-74
2022/12/23 07:40:26;;;;;;;;;;;9.60;99.90;;;;;;5091367;28;19938;-74
2022/12/23 07:42:54;;;;;;;;;;;9.60;99.90;;;;;;5089972;28;19932;-73
2022/12/23 07:45:20;;;;;;;;;;;9.60;99.90;;;;;;5084313;28;20370;-75
2022/12/23 07:47:47;;;;;;;;;;;9.60;99.90;;;;;;5088934;28;19931;-73
2022/12/23 07:50:14;;;;;;;;;;;9.50;99.90;;;;;;5089686;28;19932;-74
2022/12/23 07:52:41;;;;;;;;;;;9.50;99.90;;;;;;5087765;28;19932;-73
2022/12/23 07:55:08;;;;;;;;;;;9.50;99.90;;;;;;5083316;28;19938;-73
2022/12/23 07:57:37;;;;;;;;;;;9.50;99.90;;;;;;5090653;28;20686;-72
2022/12/23 08:00:04;;;;;;;;;;;9.50;99.90;;;;;;5090675;28;20002;-73
2022/12/23 08:02:31;;;;;;;;;;;9.40;99.90;;;;;;5089391;28;19939;-73
2022/12/23 08:04:58;;;;;;;;;;;9.40;99.90;;;;;;5086126;28;19971;-72
2022/12/23 08:07:24;;;;;;;;;;;9.50;99.90;;;;;;5089881;28;19932;-72
2022/12/23 08:09:51;;;;;;;;;;;9.50;99.90;;;;;;5087936;28;20400;-71
2022/12/23 08:12:18;;;;;;;;;;;9.50;99.90;;;;;;5089396;28;19950;-74
2022/12/23 08:14:47;;;;;;;;;;;9.50;99.90;;;;;;5088294;28;20061;-74
2022/12/23 08:17:14;;;;;;;;;;;9.50;99.90;;;;;;5088879;28;19927;-74
2022/12/23 08:19:40;;;;;;;;;;;9.50;99.90;;;;;;5094493;28;20014;-73
2022/12/23 08:22:07;;;;;;;;;;;9.50;99.90;;;;;;5095567;28;19927;-73
2022/12/23 08:24:34;;;;;;;;;;;9.50;99.90;;;;;;5094739;28;20025;-73
2022/12/23 08:27:00;;;;;;;;;;;9.50;99.90;;;;;;5092730;28;19938;-73
2022/12/23 08:29:27;;;;;;;;;;;9.60;99.90;;;;;;5092168;28;19963;-74
2022/12/23 08:31:55;;;;;;;;;;;9.60;99.90;;;;;;5087510;28;19938;-74
2022/12/23 08:34:22;;;;;;;;;;;9.60;99.90;;;;;;5090972;28;19928;-73
2022/12/23 08:36:49;;;;;;;;;;;9.60;99.90;;;;;;5094838;28;19931;-74
2022/12/23 08:39:16;;;;;;;;;;;9.60;99.90;;;;;;5089353;28;19943;-73
2022/12/23 08:41:44;;;;;;;;;;;9.60;99.90;;;;;;5091866;28;20060;-73
2022/12/23 08:44:11;;;;;;;;;;;9.60;99.90;;;;;;5089826;28;19939;-74
2022/12/23 08:46:38;;;;;;;;;;;9.70;99.90;;;;;;5094109;28;20688;-73
2022/12/23 08:49:07;;;;;;;;;;;9.70;99.90;;;;;;5093406;28;20417;-72
2022/12/23 08:51:35;;;;;;;;;;;9.70;99.90;;;;;;5094447;28;19936;-73
2022/12/23 08:54:01;;;;;;;;;;;9.70;99.90;;;;;;5087700;28;19935;-73
2022/12/23 08:56:29;;;;;;;;;;;9.80;99.90;;;;;;5087190;28;19932;-72
2022/12/23 08:58:56;;;;;;;;;;;9.80;99.90;;;;;;5086531;28;19945;-73
2022/12/23 09:01:24;;;;;;;;;;;9.80;99.90;;;;;;5090382;28;19931;-73
2022/12/23 09:03:51;;;;;;;;;;;9.80;99.90;;;;;;5084447;28;19932;-70
2022/12/23 09:06:20;;;;;;;;;;;9.80;99.90;;;;;;5083892;28;20024;-70
2022/12/23 09:08:47;;;;;;;;;;;9.80;99.90;;;;;;5089218;28;20033;-71
2022/12/23 09:11:14;;;;;;;;;;;9.80;99.90;;;;;;5089753;28;20019;-71
2022/12/23 09:13:41;;;;;;;;;;;9.80;99.90;;;;;;5081730;28;19958;-72
2022/12/23 09:16:08;;;;;;;;;;;9.80;99.90;;;;;;5089711;28;20489;-71
2022/12/23 09:18:35;;;;;;;;;;;9.80;99.90;;;;;;5088151;28;20026;-72
2022/12/23 09:21:03;;;;;;;;;;;9.80;99.90;;;;;;5088698;28;20633;-72
2022/12/23 09:23:31;;;;;;;;;;;9.80;99.90;;;;;;5084513;28;20347;-71
2022/12/23 09:25:57;;;;;;;;;;;9.90;99.90;;;;;;5090296;28;20294;-72
2022/12/23 09:28:24;;;;;;;;;;;9.90;99.90;;;;;;5086348;28;19931;-74
2022/12/23 09:30:51;;;;;;;;;;;9.90;99.90;;;;;;5086722;27;19938;-74
2022/12/23 09:33:18;;;;;;;;;;;9.90;99.90;;;;;;5085391;28;20467;-73
2022/12/23 09:35:45;;;;;;;;;;;9.90;99.90;;;;;;5085384;28;19931;-75
2022/12/23 09:38:12;;;;;;;;;;;9.90;99.90;;;;;;5085943;28;20072;-73
2022/12/23 09:40:41;;;;;;;;;;;9.90;99.90;;;;;;5088517;27;19954;-74
2022/12/23 09:43:15;;;;;;;;;;;9.90;99.90;;;;;;5087509;28;19931;-75
2022/12/23 09:45:48;;;;;;;;;;;9.90;99.90;;;;;;5086807;28;19953;-74
2022/12/23 09:48:17;;;;;;;;;;;9.90;99.90;;;;;;5091438;28;19954;-74
2022/12/23 09:50:44;;;;;;;;;;;9.90;99.90;;;;;;5087165;28;19943;-74
2022/12/23 09:53:13;;;;;;;;;;;9.90;99.90;;;;;;5091163;28;19932;-74
2022/12/23 09:55:45;;;;;;;;;;;10.00;99.90;;;;;;5092787;28;19934;-74
2022/12/23 09:58:17;;;;;;;;;;;10.00;99.90;;;;;;5090365;28;19961;-74
2022/12/23 10:00:51;;;;;;;;;;;10.10;99.90;;;;;;5090568;28;20023;-73
2022/12/23 10:03:20;;;;;;;;;;;10.10;99.90;;;;;;5091783;28;19932;-73
2022/12/23 10:05:50;;;;;;;;;;;10.10;99.90;;;;;;5091188;28;19932;-72
2022/12/23 10:08:21;;;;;;;;;;;10.00;99.90;;;;;;5087060;28;19936;-74
2022/12/23 10:10:52;;;;;;;;;;;10.10;99.90;;;;;;5092698;28;19931;-73
2022/12/23 10:13:24;;;;;;;;;;;10.10;99.90;;;;;;5091903;28;19970;-74
2022/12/23 10:15:51;;;;;;;;;;;10.10;99.90;;;;;;5088048;28;19931;-73
2022/12/23 10:18:23;;;;;;;;;;;10.10;99.90;;;;;;5091298;28;19957;-73
2022/12/23 10:20:53;;;;;;;;;;;10.00;99.90;;;;;;5090953;28;19935;-73
2022/12/23 10:23:25;;;;;;;;;;;10.00;99.90;;;;;;5090853;28;19928;-74
2022/12/23 10:25:53;;;;;;;;;;;10.00;99.90;;;;;;5094301;28;19938;-74
2022/12/23 10:28:20;;;;;;;;;;;10.00;99.90;;;;;;5091373;28;19923;-74
2022/12/23 10:30:50;;;;;;;;;;;10.00;99.90;;;;;;5093039;28;19967;-74
2022/12/23 10:33:18;;;;;;;;;;;9.90;99.90;;;;;;5090408;28;19955;-74
2022/12/23 10:35:48;;;;;;;;;;;9.80;99.90;;;;;;5089601;28;20030;-75
2022/12/23 10:38:26;;;;;;;;;;;9.80;99.90;;;;;;5090283;28;20022;-74
2022/12/23 10:40:59;;;;;;;;;;;9.80;99.90;;;;;;5090416;28;19932;-75
2022/12/23 10:43:30;;;;;;;;;;;9.90;99.90;;;;;;5089219;28;19942;-72
2022/12/23 10:46:00;;;;;;;;;;;9.90;99.90;;;;;;5088213;28;20328;-76
2022/12/23 10:48:37;;;;;;;;;;;9.90;99.90;;;;;;5088271;28;19973;-72
2022/12/23 10:51:08;;;;;;;;;;;10.00;99.90;;;;;;5089875;28;20026;-72
2022/12/23 10:53:37;;;;;;;;;;;10.00;99.90;;;;;;5090428;28;20022;-74
2022/12/23 10:56:06;;;;;;;;;;;10.00;99.90;;;;;;5091234;28;20030;-73
2022/12/23 10:58:36;;;;;;;;;;;10.00;99.90;;;;;;5086047;28;19928;-76
2022/12/23 11:01:06;;;;;;;;;;;10.00;99.90;;;;;;5087566;28;19932;-76
2022/12/23 11:03:36;;;;;;;;;;;10.00;99.90;;;;;;5087780;28;20031;-76
2022/12/23 11:06:03;;;;;;;;;;;10.00;99.90;;;;;;5090136;28;19931;-76
2022/12/23 11:08:31;;;;;;;;;;;10.00;99.90;;;;;;5085963;28;20046;-76
2022/12/23 11:10:59;;;;;;;;;;;10.00;99.90;;;;;;5092847;28;19986;-76
2022/12/23 11:13:34;;;;;;;;;;;10.00;99.90;;;;;;5089107;28;19995;-75
2022/12/23 11:16:18;;;;;;;;;;;10.00;99.90;;;;;;5088362;28;19932;-76
2022/12/23 11:18:58;;;;;;;;;;;10.00;99.90;;;;;;5086474;28;20274;-76
2022/12/23 11:21:26;;;;;;;;;;;10.00;99.90;;;;;;5086429;28;20566;-76
2022/12/23 11:24:13;;;;;;;;;;;10.00;99.90;;;;;;5087771;28;20290;-75
2022/12/23 11:26:40;;;;;;;;;;;10.00;99.90;;;;;;5083368;27;19923;-75
2022/12/23 11:29:11;;;;;;;;;;;10.00;99.90;;;;;;5091615;28;20040;-76
2022/12/23 11:31:38;;;;;;;;;;;10.00;99.90;;;;;;5088509;28;20651;-75
2022/12/23 11:34:07;;;;;;;;;;;10.00;99.90;;;;;;5090639;28;20066;-75
2022/12/23 11:36:34;;;;;;;;;;;10.00;99.90;;;;;;5089291;28;20440;-74
2022/12/23 11:39:03;;;;;;;;;;;9.90;99.90;;;;;;5089634;28;20081;-74
2022/12/23 11:41:36;;;;;;;;;;;10.00;99.90;;;;;;5089764;28;19939;-74
2022/12/23 11:44:06;;;;;;;;;;;10.00;99.90;;;;;;5091722;28;19995;-76
2022/12/23 11:46:34;;;;;;;;;;;10.00;99.90;;;;;;5091774;28;19938;-75
2022/12/23 11:49:14;;;;;;;;;;;10.00;99.90;;;;;;5087835;28;19939;-76
2022/12/23 11:51:41;;;;;;;;;;;10.00;99.90;;;;;;5085719;28;19928;-75
2022/12/23 11:54:14;;;;;;;;;;;10.00;99.90;;;;;;5088997;28;19963;-75
2022/12/23 11:56:41;;;;;;;;;;;10.00;99.90;;;;;;5086377;28;20002;-76
2022/12/23 11:59:09;;;;;;;;;;;10.10;99.90;;;;;;5089521;28;20026;-75
2022/12/23 12:01:38;;;;;;;;;;;10.10;99.90;;;;;;5089241;28;19939;-75
2022/12/23 12:04:07;;;;;;;;;;;10.10;99.90;;;;;;5090528;28;20066;-74
2022/12/23 12:06:34;;;;;;;;;;;10.20;99.90;;;;;;5085234;28;19956;-75
2022/12/23 12:09:04;;;;;;;;;;;10.20;99.90;;;;;;5084732;28;20009;-75
2022/12/23 12:11:37;;;;;;;;;;;10.30;99.90;;;;;;5085890;28;19938;-75
2022/12/23 12:14:05;;;;;;;;;;;10.30;99.90;;;;;;5086328;28;19972;-74
2022/12/23 12:16:38;;;;;;;;;;;10.30;99.90;;;;;;5090903;28;19932;-75
2022/12/23 12:19:10;;;;;;;;;;;10.30;99.90;;;;;;5085733;28;19967;-76
2022/12/23 12:21:38;;;;;;;;;;;10.40;99.90;;;;;;5084406;28;19943;-72
2022/12/23 12:24:06;;;;;;;;;;;10.40;99.90;;;;;;5085143;28;20023;-75
2022/12/23 12:26:33;;;;;;;;;;;10.60;99.90;;;;;;5085861;28;20485;-75
2022/12/23 12:29:01;;;;;;;;;;;10.70;99.90;;;;;;5083286;28;19928;-75
2022/12/23 12:31:31;;;;;;;;;;;10.90;99.90;;;;;;5086528;28;19931;-75
2022/12/23 12:34:02;;;;;;;;;;;11.10;99.90;;;;;;5084361;28;20027;-74
2022/12/23 12:36:34;;;;;;;;;;;11.20;99.90;;;;;;5088371;28;20294;-74
2022/12/23 12:39:01;;;;;;;;;;;11.60;99.90;;;;;;5083285;28;19981;-74
2022/12/23 12:41:32;;;;;;;;;;;11.80;99.90;;;;;;5084421;28;20036;-75
2022/12/23 12:44:01;;;;;;;;;;;12.00;99.90;;;;;;5086272;28;19932;-76
2022/12/23 12:46:30;;;;;;;;;;;12.20;99.90;;;;;;5085292;28;20220;-73
2022/12/23 12:49:02;;;;;;;;;;;12.30;99.90;;;;;;5085041;28;20032;-74
2022/12/23 12:51:31;;;;;;;;;;;12.40;99.90;;;;;;5085235;28;20020;-74
2022/12/23 12:54:05;;;;;;;;;;;12.60;99.90;;;;;;5075770;28;20364;-75
2022/12/23 12:56:35;;;;;;;;;;;12.70;99.90;;;;;;5086450;28;19932;-74
2022/12/23 12:59:01;;;;;;;;;;;12.30;99.90;;;;;;5086787;28;19972;-74
2022/12/23 13:01:34;;;;;;;;;;;12.80;99.90;;;;;;5094391;28;19923;-74
2022/12/23 13:04:16;;;;;;;;;;;12.90;99.90;;;;;;5095890;28;19928;-74
2022/12/23 13:06:45;;;;;;;;;;;12.90;99.90;;;;;;5089712;28;19931;-74
2022/12/23 13:09:18;;;;;;;;;;;12.90;99.90;;;;;;5087527;28;20317;-74
2022/12/23 13:11:48;;;;;;;;;;;13.00;99.90;;;;;;5090245;28;20583;-73
2022/12/23 13:14:19;;;;;;;;;;;13.00;99.90;;;;;;5091039;28;19928;-73
2022/12/23 13:16:50;;;;;;;;;;;13.10;99.90;;;;;;5089683;28;20026;-79
2022/12/23 13:19:22;;;;;;;;;;;13.10;99.90;;;;;;5086691;28;20337;-75
2022/12/23 13:21:51;;;;;;;;;;;13.20;99.90;;;;;;5087461;28;20482;-74
2022/12/23 13:24:22;;;;;;;;;;;13.20;99.90;;;;;;5082478;28;20064;-75
2022/12/23 13:26:54;;;;;;;;;;;13.30;99.90;;;;;;5085875;28;19931;-74
2022/12/23 13:29:45;;;;;;;;;;;13.30;99.90;;;;;;5088939;28;20432;-76
2022/12/23 13:32:17;;;;;;;;;;;13.40;99.90;;;;;;5082729;28;19932;-73
2022/12/23 13:34:50;;;;;;;;;;;13.50;99.90;;;;;;5088674;28;19930;-73
2022/12/23 13:37:24;;;;;;;;;;;13.50;99.90;;;;;;5098419;28;20019;-73
2022/12/23 13:39:56;;;;;;;;;;;13.40;99.90;;;;;;5086573;28;20409;-73
2022/12/23 13:42:28;;;;;;;;;;;13.50;99.90;;;;;;5089921;28;19924;-72
2022/12/23 13:44:55;;;;;;;;;;;13.60;99.90;;;;;;5088388;28;19924;-73
2022/12/23 13:47:24;;;;;;;;;;;13.70;99.90;;;;;;5088978;28;20171;-72
2022/12/23 13:49:54;;;;;;;;;;;13.70;99.90;;;;;;5091589;28;19931;-73
2022/12/23 13:52:24;;;;;;;;;;;13.60;99.90;;;;;;5085612;28;19924;-72
2022/12/23 13:54:56;;;;;;;;;;;13.60;99.90;;;;;;5088294;28;20027;-71
2022/12/23 13:57:31;;;;;;;;;;;13.60;99.90;;;;;;5089804;28;19942;-71
2022/12/23 14:00:01;;;;;;;;;;;13.60;99.90;;;;;;5086752;28;19923;-73
2022/12/23 14:02:48;;;;;;;;;;;13.60;99.90;;;;;;5090531;28;19931;-72
2022/12/23 14:05:29;;;;;;;;;;;13.60;99.90;;;;;;5090564;28;19931;-72
2022/12/23 14:07:56;;;;;;;;;;;13.60;99.90;;;;;;5090031;28;19932;-72
2022/12/23 14:10:25;;;;;;;;;;;13.60;99.90;;;;;;5088815;28;20299;-73
2022/12/23 14:12:52;;;;;;;;;;;13.60;99.90;;;;;;5084748;28;20050;-72
2022/12/23 14:15:40;;;;;;;;;;;13.60;99.90;;;;;;5090031;27;19942;-71
2022/12/23 14:18:15;;;;;;;;;;;13.50;99.90;;;;;;5085720;28;19930;-73
2022/12/23 14:20:46;;;;;;;;;;;13.50;99.90;;;;;;5089334;28;20427;-73
2022/12/23 14:23:20;;;;;;;;;;;13.50;99.90;;;;;;5089236;28;19923;-74
2022/12/23 14:25:55;;;;;;;;;;;13.50;99.90;;;;;;5089801;28;19924;-71
2022/12/23 14:28:37;;;;;;;;;;;13.60;99.90;;;;;;5088933;28;20403;-71
2022/12/23 14:31:04;;;;;;;;;;;13.60;99.90;;;;;;5093750;28;19932;-73
2022/12/23 14:33:33;;;;;;;;;;;13.60;99.90;;;;;;5088910;28;20506;-69
2022/12/23 14:36:14;;;;;;;;;;;13.60;99.90;;;;;;5086883;28;19963;-69
2022/12/23 14:38:41;;;;;;;;;;;13.50;99.90;;;;;;5085834;28;19928;-69
2022/12/23 14:41:35;;;;;;;;;;;13.50;99.90;;;;;;5090897;28;20679;-70
2022/12/23 14:44:02;;;;;;;;;;;13.50;99.90;;;;;;5089629;28;19928;-69
2022/12/23 14:46:43;;;;;;;;;;;13.40;99.90;;;;;;5085929;28;20016;-69
2022/12/23 14:49:14;;;;;;;;;;;13.30;99.90;;;;;;5070522;28;20415;-69
2022/12/23 14:51:41;;;;;;;;;;;13.30;99.90;;;;;;5086830;28;19947;-69
2022/12/23 14:54:12;;;;;;;;;;;13.10;99.90;;;;;;5083197;28;19938;-70
2022/12/23 14:56:47;;;;;;;;;;;13.00;99.90;;;;;;5086849;28;19928;-69